sensor_id;sensor_type;location;lat;lon;timestamp;pressure;altitude;pressure_sealevel;temperature;humidity
8699;BME280;4386;51.236;6.742;2023-02-10T00:00:46;103114.06;;;6.39;69.66
8699;BME280;4386;51.236;6.742;2023-02-10T00:01:48;103123.69;;;6.40;69.92
8699;BME280;4386;51.236;6.742;2023-02-10T00:03:07;103126.31;;;6.40;69.76
8699;BME280;4386;51.236;6.742;2023-02-10T00:04:18;103128.97;;;6.40;69.82
8699;BME280;4386;51.236;6.742;2023-02-10T00:05:21;103127.16;;;6.42;69.78
8699;BME280;4386;51.236;6.742;2023-02-10T00:06:25;103128.91;;;6.43;70.14
8699;BME280;4386;51.236;6.742;2023-02-10T00:07:27;103119.22;;;6.44;69.98
8699;BME280;4386;51.236;6.742;2023-02-10T00:08:29;103119.22;;;6.44;70.06
8699;BME280;4386;51.236;6.742;2023-02-10T00:09:32;103127.06;;;6.45;69.99
8699;BME280;4386;51.236;6.742;2023-02-10T00:10:35;103120.91;;;6.46;69.87
8699;BME280;4386;51.236;6.742;2023-02-10T00:11:36;103127.94;;;6.46;70.24
8699;BME280;4386;51.236;6.742;2023-02-10T00:12:56;103122.69;;;6.46;70.04
8699;BME280;4386;51.236;6.742;2023-02-10T00:13:59;103128.81;;;6.46;70.26
8699;BME280;4386;51.236;6.742;2023-02-10T00:15:00;103128.81;;;6.46;70.10
8699;BME280;4386;51.236;6.742;2023-02-10T00:16:06;103127.06;;;6.47;69.92
8699;BME280;4386;51.236;6.742;2023-02-10T00:17:16;103134.06;;;6.48;69.86
8699;BME280;4386;51.236;6.742;2023-02-10T00:18:20;103130.59;;;6.46;70.34
8699;BME280;4386;51.236;6.742;2023-02-10T00:19:23;103128.81;;;6.46;70.08
8699;BME280;4386;51.236;6.742;2023-02-10T00:20:26;103140.25;;;6.45;70.29
8699;BME280;4386;51.236;6.742;2023-02-10T00:21:28;103135.91;;;6.44;70.08
8699;BME280;4386;51.236;6.742;2023-02-10T00:22:31;103140.28;;;6.44;69.98
8699;BME280;4386;51.236;6.742;2023-02-10T00:23:34;103139.44;;;6.43;70.15
8699;BME280;4386;51.236;6.742;2023-02-10T00:24:46;103140.31;;;6.42;69.94
8699;BME280;4386;51.236;6.742;2023-02-10T00:25:49;103139.44;;;6.43;70.08
8699;BME280;4386;51.236;6.742;2023-02-10T00:26:52;103145.63;;;6.41;69.92
8699;BME280;4386;51.236;6.742;2023-02-10T00:27:54;103145.63;;;6.41;69.91
8699;BME280;4386;51.236;6.742;2023-02-10T00:28:57;103137.72;;;6.41;69.93
8699;BME280;4386;51.236;6.742;2023-02-10T00:29:58;103143.88;;;6.40;69.91
8699;BME280;4386;51.236;6.742;2023-02-10T00:31:06;103138.63;;;6.40;70.01
8699;BME280;4386;51.236;6.742;2023-02-10T00:32:07;103138.63;;;6.40;70.11
8699;BME280;4386;51.236;6.742;2023-02-10T00:33:18;103136.88;;;6.39;70.11
8699;BME280;4386;51.236;6.742;2023-02-10T00:34:20;103138.63;;;6.40;70.18
8699;BME280;4386;51.236;6.742;2023-02-10T00:35:23;103145.63;;;6.41;70.25
8699;BME280;4386;51.236;6.742;2023-02-10T00:36:26;103141.25;;;6.41;70.09
8699;BME280;4386;51.236;6.742;2023-02-10T00:37:27;103139.50;;;6.40;70.03
8699;BME280;4386;51.236;6.742;2023-02-10T00:38:31;103139.44;;;6.42;70.30
8699;BME280;4386;51.236;6.742;2023-02-10T00:39:43;103137.69;;;6.42;70.11
8699;BME280;4386;51.236;6.742;2023-02-10T00:40:46;103141.19;;;6.43;70.19
8699;BME280;4386;51.236;6.742;2023-02-10T00:41:48;103137.69;;;6.42;70.43
8699;BME280;4386;51.236;6.742;2023-02-10T00:42:50;103147.31;;;6.43;70.36
8699;BME280;4386;51.236;6.742;2023-02-10T00:43:52;103140.38;;;6.41;70.38
8699;BME280;4386;51.236;6.742;2023-02-10T00:44:55;103142.94;;;6.42;70.19
8699;BME280;4386;51.236;6.742;2023-02-10T00:45:57;103142.06;;;6.42;70.32
8699;BME280;4386;51.236;6.742;2023-02-10T00:47:00;103137.69;;;6.42;70.66
8699;BME280;4386;51.236;6.742;2023-02-10T00:48:02;103139.50;;;6.40;70.21
8699;BME280;4386;51.236;6.742;2023-02-10T00:49:05;103135.09;;;6.41;70.27
8699;BME280;4386;51.236;6.742;2023-02-10T00:50:07;103145.63;;;6.41;70.47
8699;BME280;4386;51.236;6.742;2023-02-10T00:51:10;103143.88;;;6.41;70.68
8699;BME280;4386;51.236;6.742;2023-02-10T00:52:13;103141.19;;;6.43;70.69
8699;BME280;4386;51.236;6.742;2023-02-10T00:53:25;103139.44;;;6.43;70.54
8699;BME280;4386;51.236;6.742;2023-02-10T00:54:27;103141.16;;;6.44;70.43
8699;BME280;4386;51.236;6.742;2023-02-10T00:55:29;103140.25;;;6.45;70.80
8699;BME280;4386;51.236;6.742;2023-02-10T00:56:31;103140.22;;;6.47;70.31
8699;BME280;4386;51.236;6.742;2023-02-10T00:57:33;103147.25;;;6.48;70.60
8699;BME280;4386;51.236;6.742;2023-02-10T00:58:36;103140.22;;;6.47;70.39
8699;BME280;4386;51.236;6.742;2023-02-10T00:59:38;103145.44;;;6.48;70.52
8699;BME280;4386;51.236;6.742;2023-02-10T01:00:41;103141.09;;;6.47;70.70
8699;BME280;4386;51.236;6.742;2023-02-10T01:01:43;103142.81;;;6.48;70.39
8699;BME280;4386;51.236;6.742;2023-02-10T01:02:47;103142.81;;;6.48;70.52
8699;BME280;4386;51.236;6.742;2023-02-10T01:03:48;103142.81;;;6.48;70.34
8699;BME280;4386;51.236;6.742;2023-02-10T01:04:51;103142.81;;;6.48;70.25
8699;BME280;4386;51.236;6.742;2023-02-10T01:05:53;103139.34;;;6.48;70.82
8699;BME280;4386;51.236;6.742;2023-02-10T01:07:05;103143.72;;;6.47;70.47
8699;BME280;4386;51.236;6.742;2023-02-10T01:08:18;103142.00;;;6.46;70.44
8699;BME280;4386;51.236;6.742;2023-02-10T01:09:20;103149.91;;;6.46;70.65
8699;BME280;4386;51.236;6.742;2023-02-10T01:10:23;103146.38;;;6.46;70.45
8699;BME280;4386;51.236;6.742;2023-02-10T01:11:24;103146.44;;;6.44;70.53
8699;BME280;4386;51.236;6.742;2023-02-10T01:12:33;103142.88;;;6.45;70.39
8699;BME280;4386;51.236;6.742;2023-02-10T01:13:37;103143.81;;;6.44;70.65
8699;BME280;4386;51.236;6.742;2023-02-10T01:14:39;103147.28;;;6.45;70.74
8699;BME280;4386;51.236;6.742;2023-02-10T01:15:42;103147.31;;;6.43;70.37
8699;BME280;4386;51.236;6.742;2023-02-10T01:16:44;103148.22;;;6.42;70.42
8699;BME280;4386;51.236;6.742;2023-02-10T01:17:48;103154.34;;;6.43;70.65
8699;BME280;4386;51.236;6.742;2023-02-10T01:18:50;103153.53;;;6.41;70.86
8699;BME280;4386;51.236;6.742;2023-02-10T01:19:52;103152.66;;;6.40;70.50
8699;BME280;4386;51.236;6.742;2023-02-10T01:20:54;103154.44;;;6.40;70.87
8699;BME280;4386;51.236;6.742;2023-02-10T01:21:57;103160.56;;;6.40;70.58
8699;BME280;4386;51.236;6.742;2023-02-10T01:22:59;103158.81;;;6.39;70.67
8699;BME280;4386;51.236;6.742;2023-02-10T01:24:03;103158.81;;;6.39;70.82
8699;BME280;4386;51.236;6.742;2023-02-10T01:25:05;103158.00;;;6.37;70.65
8699;BME280;4386;51.236;6.742;2023-02-10T01:26:08;103158.00;;;6.37;70.60
8699;BME280;4386;51.236;6.742;2023-02-10T01:27:10;103151.00;;;6.36;71.00
8699;BME280;4386;51.236;6.742;2023-02-10T01:28:12;103158.06;;;6.34;70.84
8699;BME280;4386;51.236;6.742;2023-02-10T01:29:14;103164.22;;;6.33;70.75
8699;BME280;4386;51.236;6.742;2023-02-10T01:30:16;103157.22;;;6.32;70.70
8699;BME280;4386;51.236;6.742;2023-02-10T01:31:19;103169.50;;;6.32;70.89
8699;BME280;4386;51.236;6.742;2023-02-10T01:32:22;103160.75;;;6.31;70.82
8699;BME280;4386;51.236;6.742;2023-02-10T01:33:25;103159.03;;;6.30;70.92
8699;BME280;4386;51.236;6.742;2023-02-10T01:34:28;103173.06;;;6.29;70.86
8699;BME280;4386;51.236;6.742;2023-02-10T01:35:32;103160.84;;;6.28;70.71
8699;BME280;4386;51.236;6.742;2023-02-10T01:36:35;103160.84;;;6.28;70.69
8699;BME280;4386;51.236;6.742;2023-02-10T01:37:38;103168.75;;;6.26;71.00
8699;BME280;4386;51.236;6.742;2023-02-10T01:38:39;103167.88;;;6.26;70.98
8699;BME280;4386;51.236;6.742;2023-02-10T01:39:43;103167.88;;;6.26;70.93
8699;BME280;4386;51.236;6.742;2023-02-10T01:40:48;103171.41;;;6.25;70.94
8699;BME280;4386;51.236;6.742;2023-02-10T01:41:51;103174.03;;;6.25;71.07
8699;BME280;4386;51.236;6.742;2023-02-10T01:42:55;103173.22;;;6.23;70.96
8699;BME280;4386;51.236;6.742;2023-02-10T01:45:58;103176.72;;;6.22;71.05
8699;BME280;4386;51.236;6.742;2023-02-10T01:47:03;103173.28;;;6.20;71.04
8699;BME280;4386;51.236;6.742;2023-02-10T01:48:15;103175.03;;;6.19;71.31
8699;BME280;4386;51.236;6.742;2023-02-10T01:49:22;103178.53;;;6.20;71.36
8699;BME280;4386;51.236;6.742;2023-02-10T01:50:28;103166.25;;;6.19;71.15
8699;BME280;4386;51.236;6.742;2023-02-10T01:51:36;103171.56;;;6.17;71.40
8699;BME280;4386;51.236;6.742;2023-02-10T01:52:40;103168.91;;;6.19;71.29
8699;BME280;4386;51.236;6.742;2023-02-10T01:53:44;103170.72;;;6.17;71.56
8699;BME280;4386;51.236;6.742;2023-02-10T01:54:49;103175.91;;;6.18;71.35
8699;BME280;4386;51.236;6.742;2023-02-10T01:55:55;103172.44;;;6.18;71.43
8699;BME280;4386;51.236;6.742;2023-02-10T01:56:59;103167.19;;;6.18;71.31
8699;BME280;4386;51.236;6.742;2023-02-10T01:58:02;103173.28;;;6.18;71.42
8699;BME280;4386;51.236;6.742;2023-02-10T01:59:08;103174.16;;;6.19;71.51
8699;BME280;4386;51.236;6.742;2023-02-10T02:00:17;103175.91;;;6.18;71.41
8699;BME280;4386;51.236;6.742;2023-02-10T02:01:21;103174.16;;;6.19;71.65
8699;BME280;4386;51.236;6.742;2023-02-10T02:02:24;103175.91;;;6.20;71.46
8699;BME280;4386;51.236;6.742;2023-02-10T02:03:27;103168.88;;;6.20;71.56
8699;BME280;4386;51.236;6.742;2023-02-10T02:04:30;103182.00;;;6.22;71.67
8699;BME280;4386;51.236;6.742;2023-02-10T02:05:35;103189.00;;;6.23;71.55
8699;BME280;4386;51.236;6.742;2023-02-10T02:06:38;103181.09;;;6.23;71.72
8699;BME280;4386;51.236;6.742;2023-02-10T02:07:43;103186.34;;;6.24;71.63
8699;BME280;4386;51.236;6.742;2023-02-10T02:08:45;103185.47;;;6.24;71.39
8699;BME280;4386;51.236;6.742;2023-02-10T02:09:59;103186.34;;;6.24;71.85
8699;BME280;4386;51.236;6.742;2023-02-10T02:11:18;103179.28;;;6.25;71.56
8699;BME280;4386;51.236;6.742;2023-02-10T02:12:40;103181.94;;;6.25;71.69
8699;BME280;4386;51.236;6.742;2023-02-10T02:13:58;103181.94;;;6.25;71.65
8699;BME280;4386;51.236;6.742;2023-02-10T02:15:07;103174.03;;;6.25;71.74
8699;BME280;4386;51.236;6.742;2023-02-10T02:16:21;103181.94;;;6.25;71.86
8699;BME280;4386;51.236;6.742;2023-02-10T02:17:33;103180.22;;;6.24;71.91
8699;BME280;4386;51.236;6.742;2023-02-10T02:18:47;103191.63;;;6.24;71.75
8699;BME280;4386;51.236;6.742;2023-02-10T02:20:22;103198.59;;;6.25;71.98
8699;BME280;4386;51.236;6.742;2023-02-10T02:22:03;103197.78;;;6.23;71.57
8699;BME280;4386;51.236;6.742;2023-02-10T02:23:19;103196.91;;;6.23;71.76
8699;BME280;4386;51.236;6.742;2023-02-10T02:24:41;103195.13;;;6.23;71.78
8699;BME280;4386;51.236;6.742;2023-02-10T02:26:08;103197.78;;;6.22;71.75
8699;BME280;4386;51.236;6.742;2023-02-10T02:27:32;103195.16;;;6.22;71.89
8699;BME280;4386;51.236;6.742;2023-02-10T02:28:51;103200.41;;;6.22;71.92
8699;BME280;4386;51.236;6.742;2023-02-10T02:30:22;103202.22;;;6.21;71.79
8699;BME280;4386;51.236;6.742;2023-02-10T02:31:54;103203.09;;;6.20;71.81
8699;BME280;4386;51.236;6.742;2023-02-10T02:33:02;103202.25;;;6.18;71.89
8699;BME280;4386;51.236;6.742;2023-02-10T02:34:08;103206.66;;;6.18;71.76
8699;BME280;4386;51.236;6.742;2023-02-10T02:35:15;103206.66;;;6.18;71.80
8699;BME280;4386;51.236;6.742;2023-02-10T02:36:21;103204.94;;;6.17;72.08
8699;BME280;4386;51.236;6.742;2023-02-10T02:37:35;103204.06;;;6.16;72.30
8699;BME280;4386;51.236;6.742;2023-02-10T02:38:47;103203.19;;;6.16;71.91
8699;BME280;4386;51.236;6.742;2023-02-10T02:39:53;103198.84;;;6.13;72.10
8699;BME280;4386;51.236;6.742;2023-02-10T02:40:57;103199.75;;;6.12;72.26
8699;BME280;4386;51.236;6.742;2023-02-10T02:42:18;103206.75;;;6.12;72.43
8699;BME280;4386;51.236;6.742;2023-02-10T02:43:21;103200.69;;;6.10;72.07
8699;BME280;4386;51.236;6.742;2023-02-10T02:44:23;103203.31;;;6.10;72.34
8699;BME280;4386;51.236;6.742;2023-02-10T02:45:31;103201.56;;;6.09;72.34
8699;BME280;4386;51.236;6.742;2023-02-10T02:46:46;103198.97;;;6.07;72.44
8699;BME280;4386;51.236;6.742;2023-02-10T02:47:59;103194.59;;;6.08;72.46
8699;BME280;4386;51.236;6.742;2023-02-10T02:49:11;103202.47;;;6.08;72.48
8699;BME280;4386;51.236;6.742;2023-02-10T02:50:22;103196.34;;;6.06;72.47
8699;BME280;4386;51.236;6.742;2023-02-10T02:51:35;103191.09;;;6.06;72.62
8699;BME280;4386;51.236;6.742;2023-02-10T02:52:51;103199.91;;;6.05;72.59
8699;BME280;4386;51.236;6.742;2023-02-10T02:54:00;103212.22;;;6.03;72.82
8699;BME280;4386;51.236;6.742;2023-02-10T02:55:12;103204.38;;;6.01;72.68
8699;BME280;4386;51.236;6.742;2023-02-10T02:56:21;103207.00;;;6.00;72.62
8699;BME280;4386;51.236;6.742;2023-02-10T02:57:33;103200.88;;;5.99;72.58
8699;BME280;4386;51.236;6.742;2023-02-10T02:58:48;103207.94;;;5.97;72.91
8699;BME280;4386;51.236;6.742;2023-02-10T03:00:00;103213.22;;;5.97;72.85
8699;BME280;4386;51.236;6.742;2023-02-10T03:01:12;103210.63;;;5.94;72.95
8699;BME280;4386;51.236;6.742;2023-02-10T03:02:18;103213.28;;;5.94;72.92
8699;BME280;4386;51.236;6.742;2023-02-10T03:03:22;103216.84;;;5.92;73.06
8699;BME280;4386;51.236;6.742;2023-02-10T03:04:28;103207.19;;;5.91;73.02
8699;BME280;4386;51.236;6.742;2023-02-10T03:05:32;103208.06;;;5.90;72.99
8699;BME280;4386;51.236;6.742;2023-02-10T03:06:34;103208.13;;;5.87;72.97
8699;BME280;4386;51.236;6.742;2023-02-10T03:07:36;103205.50;;;5.87;73.16
8699;BME280;4386;51.236;6.742;2023-02-10T03:08:39;103202.88;;;5.87;73.37
8699;BME280;4386;51.236;6.742;2023-02-10T03:09:43;103200.25;;;5.87;73.05
8699;BME280;4386;51.236;6.742;2023-02-10T03:10:45;103203.78;;;5.86;73.16
8699;BME280;4386;51.236;6.742;2023-02-10T03:11:48;103208.13;;;5.87;73.34
8699;BME280;4386;51.236;6.742;2023-02-10T03:12:59;103202.88;;;5.87;73.22
8699;BME280;4386;51.236;6.742;2023-02-10T03:14:12;103198.53;;;5.86;73.52
8699;BME280;4386;51.236;6.742;2023-02-10T03:15:23;103204.63;;;5.86;73.48
8699;BME280;4386;51.236;6.742;2023-02-10T03:16:26;103204.66;;;5.85;73.65
8699;BME280;4386;51.236;6.742;2023-02-10T03:17:29;103198.50;;;5.84;73.81
8699;BME280;4386;51.236;6.742;2023-02-10T03:18:32;103195.00;;;5.84;73.66
8699;BME280;4386;51.236;6.742;2023-02-10T03:19:33;103189.75;;;5.84;73.72
8699;BME280;4386;51.236;6.742;2023-02-10T03:20:36;103192.41;;;5.82;73.79
8699;BME280;4386;51.236;6.742;2023-02-10T03:21:38;103183.66;;;5.80;73.69
8699;BME280;4386;51.236;6.742;2023-02-10T03:22:41;103189.81;;;5.81;74.03
8699;BME280;4386;51.236;6.742;2023-02-10T03:23:42;103178.47;;;5.77;73.85
8699;BME280;4386;51.236;6.742;2023-02-10T03:24:45;103193.38;;;5.76;73.85
8699;BME280;4386;51.236;6.742;2023-02-10T03:25:47;103179.41;;;5.74;74.09
8699;BME280;4386;51.236;6.742;2023-02-10T03:26:51;103183.78;;;5.74;74.20
8699;BME280;4386;51.236;6.742;2023-02-10T03:28:03;103176.81;;;5.71;74.15
8699;BME280;4386;51.236;6.742;2023-02-10T03:29:16;103174.19;;;5.71;74.07
8699;BME280;4386;51.236;6.742;2023-02-10T03:30:19;103175.97;;;5.69;73.87
8699;BME280;4386;51.236;6.742;2023-02-10T03:31:21;103177.78;;;5.67;74.14
8699;BME280;4386;51.236;6.742;2023-02-10T03:32:24;103176.03;;;5.66;74.15
8699;BME280;4386;51.236;6.742;2023-02-10T03:33:27;103171.69;;;5.65;74.17
8699;BME280;4386;51.236;6.742;2023-02-10T03:34:29;103168.19;;;5.65;74.15
8699;BME280;4386;51.236;6.742;2023-02-10T03:35:35;103172.56;;;5.64;74.10
8699;BME280;4386;51.236;6.742;2023-02-10T03:36:37;103169.09;;;5.62;74.21
8699;BME280;4386;51.236;6.742;2023-02-10T03:37:39;103169.09;;;5.62;74.36
8699;BME280;4386;51.236;6.742;2023-02-10T03:38:42;103162.13;;;5.60;74.41
8699;BME280;4386;51.236;6.742;2023-02-10T03:39:43;103155.16;;;5.57;74.42
8699;BME280;4386;51.236;6.742;2023-02-10T03:40:48;103148.16;;;5.56;74.48
8699;BME280;4386;51.236;6.742;2023-02-10T03:42:00;103160.41;;;5.57;74.46
8699;BME280;4386;51.236;6.742;2023-02-10T03:43:09;103157.84;;;5.54;74.44
8699;BME280;4386;51.236;6.742;2023-02-10T03:44:21;103163.16;;;5.53;74.61
8699;BME280;4386;51.236;6.742;2023-02-10T03:45:24;103169.28;;;5.52;74.64
8699;BME280;4386;51.236;6.742;2023-02-10T03:46:25;103169.31;;;5.50;74.39
8699;BME280;4386;51.236;6.742;2023-02-10T03:47:28;103167.59;;;5.49;74.51
8699;BME280;4386;51.236;6.742;2023-02-10T03:48:31;103175.50;;;5.48;74.73
8699;BME280;4386;51.236;6.742;2023-02-10T03:49:33;103175.50;;;5.48;74.64
8699;BME280;4386;51.236;6.742;2023-02-10T03:50:37;103179.00;;;5.47;74.62
8699;BME280;4386;51.236;6.742;2023-02-10T03:51:39;103184.31;;;5.45;74.85
8699;BME280;4386;51.236;6.742;2023-02-10T03:52:41;103174.69;;;5.44;74.81
8699;BME280;4386;51.236;6.742;2023-02-10T03:53:52;103173.84;;;5.42;74.49
8699;BME280;4386;51.236;6.742;2023-02-10T03:54:55;103182.66;;;5.40;74.83
8699;BME280;4386;51.236;6.742;2023-02-10T03:55:59;103184.47;;;5.36;74.67
8699;BME280;4386;51.236;6.742;2023-02-10T03:57:01;103180.97;;;5.36;74.86
8699;BME280;4386;51.236;6.742;2023-02-10T03:58:03;103184.47;;;5.35;74.74
8699;BME280;4386;51.236;6.742;2023-02-10T03:59:05;103182.78;;;5.32;74.64
8699;BME280;4386;51.236;6.742;2023-02-10T04:00:09;103191.53;;;5.33;74.75
8699;BME280;4386;51.236;6.742;2023-02-10T04:01:19;103187.19;;;5.30;74.96
8699;BME280;4386;51.236;6.742;2023-02-10T04:02:22;103189.84;;;5.29;74.82
8699;BME280;4386;51.236;6.742;2023-02-10T04:03:24;103189.84;;;5.27;74.88
8699;BME280;4386;51.236;6.742;2023-02-10T04:04:38;103196.03;;;5.26;74.99
8699;BME280;4386;51.236;6.742;2023-02-10T04:05:49;103196.94;;;5.23;74.90
8699;BME280;4386;51.236;6.742;2023-02-10T04:06:52;103193.47;;;5.21;75.23
8699;BME280;4386;51.236;6.742;2023-02-10T04:07:57;103192.59;;;5.21;75.21
8699;BME280;4386;51.236;6.742;2023-02-10T04:08:59;103196.13;;;5.18;75.25
8699;BME280;4386;51.236;6.742;2023-02-10T04:10:01;103191.78;;;5.17;75.35
8699;BME280;4386;51.236;6.742;2023-02-10T04:11:04;103197.94;;;5.16;75.24
8699;BME280;4386;51.236;6.742;2023-02-10T04:12:07;103211.94;;;5.17;75.43
8699;BME280;4386;51.236;6.742;2023-02-10T04:13:10;103210.22;;;5.16;75.28
8699;BME280;4386;51.236;6.742;2023-02-10T04:14:11;103209.34;;;5.15;75.38
8699;BME280;4386;51.236;6.742;2023-02-10T04:15:14;103209.34;;;5.14;75.27
8699;BME280;4386;51.236;6.742;2023-02-10T04:16:16;103215.50;;;5.13;75.60
8699;BME280;4386;51.236;6.742;2023-02-10T04:17:21;103202.38;;;5.13;75.51
8699;BME280;4386;51.236;6.742;2023-02-10T04:18:22;103201.50;;;5.11;75.47
8699;BME280;4386;51.236;6.742;2023-02-10T04:19:25;103199.78;;;5.10;75.51
8699;BME280;4386;51.236;6.742;2023-02-10T04:20:29;103205.94;;;5.10;75.80
8699;BME280;4386;51.236;6.742;2023-02-10T04:21:34;103199.78;;;5.10;75.78
8699;BME280;4386;51.236;6.742;2023-02-10T04:22:45;103207.69;;;5.10;75.80
8699;BME280;4386;51.236;6.742;2023-02-10T04:23:58;103205.06;;;5.10;75.74
8699;BME280;4386;51.236;6.742;2023-02-10T04:25:00;103196.28;;;5.09;75.67
8699;BME280;4386;51.236;6.742;2023-02-10T04:26:03;103201.56;;;5.09;75.58
8699;BME280;4386;51.236;6.742;2023-02-10T04:27:06;103200.66;;;5.10;75.67
8699;BME280;4386;51.236;6.742;2023-02-10T04:28:07;103196.25;;;5.11;75.86
8699;BME280;4386;51.236;6.742;2023-02-10T04:29:13;103191.00;;;5.11;75.77
8699;BME280;4386;51.236;6.742;2023-02-10T04:30:15;103191.00;;;5.11;75.89
8699;BME280;4386;51.236;6.742;2023-02-10T04:31:17;103198.88;;;5.12;75.92
8699;BME280;4386;51.236;6.742;2023-02-10T04:32:20;103197.13;;;5.11;76.03
8699;BME280;4386;51.236;6.742;2023-02-10T04:33:32;103192.75;;;5.12;76.02
8699;BME280;4386;51.236;6.742;2023-02-10T04:34:44;103198.88;;;5.12;76.13
8699;BME280;4386;51.236;6.742;2023-02-10T04:35:58;103208.50;;;5.12;76.13
8699;BME280;4386;51.236;6.742;2023-02-10T04:36:59;103213.78;;;5.12;76.04
8699;BME280;4386;51.236;6.742;2023-02-10T04:38:02;103207.63;;;5.11;76.22
8699;BME280;4386;51.236;6.742;2023-02-10T04:39:04;103205.06;;;5.10;76.11
8699;BME280;4386;51.236;6.742;2023-02-10T04:40:08;103211.19;;;5.10;76.30
8699;BME280;4386;51.236;6.742;2023-02-10T04:41:10;103206.81;;;5.09;76.23
8699;BME280;4386;51.236;6.742;2023-02-10T04:42:12;103205.94;;;5.09;76.23
8699;BME280;4386;51.236;6.742;2023-02-10T04:43:14;103215.63;;;5.07;76.30
8699;BME280;4386;51.236;6.742;2023-02-10T04:44:17;103208.59;;;5.06;76.45
8699;BME280;4386;51.236;6.742;2023-02-10T04:45:18;103212.13;;;5.05;76.26
8699;BME280;4386;51.236;6.742;2023-02-10T04:46:22;103216.50;;;5.04;76.23
8699;BME280;4386;51.236;6.742;2023-02-10T04:47:24;103219.16;;;5.03;76.47
8699;BME280;4386;51.236;6.742;2023-02-10T04:48:27;103218.31;;;5.01;76.25
8699;BME280;4386;51.236;6.742;2023-02-10T04:49:28;103219.22;;;5.00;76.32
8699;BME280;4386;51.236;6.742;2023-02-10T04:50:31;103224.47;;;5.00;76.42
8699;BME280;4386;51.236;6.742;2023-02-10T04:51:34;103219.22;;;5.00;76.49
8699;BME280;4386;51.236;6.742;2023-02-10T04:52:38;103222.72;;;4.99;76.40
8699;BME280;4386;51.236;6.742;2023-02-10T04:53:46;103223.59;;;4.99;76.71
8699;BME280;4386;51.236;6.742;2023-02-10T04:54:59;103227.09;;;5.00;76.50
8699;BME280;4386;51.236;6.742;2023-02-10T04:56:11;103227.06;;;5.01;76.59
8699;BME280;4386;51.236;6.742;2023-02-10T04:57:23;103227.94;;;5.02;76.47
8699;BME280;4386;51.236;6.742;2023-02-10T04:58:25;103223.56;;;5.02;76.53
8699;BME280;4386;51.236;6.742;2023-02-10T04:59:27;103218.28;;;5.02;76.53
8699;BME280;4386;51.236;6.742;2023-02-10T05:00:29;103221.75;;;5.04;76.60
8699;BME280;4386;51.236;6.742;2023-02-10T05:01:32;103218.25;;;5.05;76.41
8699;BME280;4386;51.236;6.742;2023-02-10T05:02:34;103221.72;;;5.07;76.72
8699;BME280;4386;51.236;6.742;2023-02-10T05:03:36;103215.56;;;5.10;76.56
8699;BME280;4386;51.236;6.742;2023-02-10T05:04:38;103219.91;;;5.12;76.68
8699;BME280;4386;51.236;6.742;2023-02-10T05:05:40;103216.38;;;5.13;76.55
8699;BME280;4386;51.236;6.742;2023-02-10T05:06:43;103215.47;;;5.16;76.72
8699;BME280;4386;51.236;6.742;2023-02-10T05:07:46;103218.94;;;5.18;76.68
8699;BME280;4386;51.236;6.742;2023-02-10T05:08:57;103217.16;;;5.20;76.81
8699;BME280;4386;51.236;6.742;2023-02-10T05:10:04;103215.38;;;5.22;76.69
8699;BME280;4386;51.236;6.742;2023-02-10T05:11:07;103214.50;;;5.21;76.82
8699;BME280;4386;51.236;6.742;2023-02-10T05:12:20;103210.97;;;5.22;76.67
8699;BME280;4386;51.236;6.742;2023-02-10T05:13:31;103210.09;;;5.22;76.61
8699;BME280;4386;51.236;6.742;2023-02-10T05:14:41;103214.47;;;5.23;76.63
8699;BME280;4386;51.236;6.742;2023-02-10T05:15:43;103208.38;;;5.21;76.74
8699;BME280;4386;51.236;6.742;2023-02-10T05:16:46;103205.72;;;5.21;76.66
8699;BME280;4386;51.236;6.742;2023-02-10T05:17:47;103208.38;;;5.21;76.80
8699;BME280;4386;51.236;6.742;2023-02-10T05:18:50;103210.09;;;5.22;76.88
8699;BME280;4386;51.236;6.742;2023-02-10T05:19:52;103203.09;;;5.21;77.17
8699;BME280;4386;51.236;6.742;2023-02-10T05:20:54;103210.09;;;5.22;77.14
8699;BME280;4386;51.236;6.742;2023-02-10T05:21:57;103211.88;;;5.21;76.98
8699;BME280;4386;51.236;6.742;2023-02-10T05:23:00;103204.84;;;5.20;77.13
8699;BME280;4386;51.236;6.742;2023-02-10T05:24:02;103214.53;;;5.20;77.02
8699;BME280;4386;51.236;6.742;2023-02-10T05:25:05;103208.41;;;5.19;76.94
8699;BME280;4386;51.236;6.742;2023-02-10T05:26:08;103206.66;;;5.18;77.00
8699;BME280;4386;51.236;6.742;2023-02-10T05:27:21;103209.31;;;5.17;77.10
8699;BME280;4386;51.236;6.742;2023-02-10T05:28:22;103206.69;;;5.17;77.06
8699;BME280;4386;51.236;6.742;2023-02-10T05:29:25;103214.59;;;5.14;77.19
8699;BME280;4386;51.236;6.742;2023-02-10T05:30:27;103210.25;;;5.13;77.19
8699;BME280;4386;51.236;6.742;2023-02-10T05:31:39;103214.66;;;5.11;77.17
8699;BME280;4386;51.236;6.742;2023-02-10T05:32:41;103218.19;;;5.10;77.24
8699;BME280;4386;51.236;6.742;2023-02-10T05:33:44;103217.31;;;5.08;77.24
8699;BME280;4386;51.236;6.742;2023-02-10T05:34:46;103220.88;;;5.07;77.27
8699;BME280;4386;51.236;6.742;2023-02-10T05:35:48;103219.13;;;5.06;77.40
8699;BME280;4386;51.236;6.742;2023-02-10T05:36:50;103220.91;;;5.04;77.39
8699;BME280;4386;51.236;6.742;2023-02-10T05:38:04;103229.69;;;5.03;77.36
8699;BME280;4386;51.236;6.742;2023-02-10T05:39:15;103238.41;;;5.05;77.30
8699;BME280;4386;51.236;6.742;2023-02-10T05:40:28;103234.06;;;5.01;77.32
8699;BME280;4386;51.236;6.742;2023-02-10T05:41:40;103234.06;;;5.01;77.19
8699;BME280;4386;51.236;6.742;2023-02-10T05:42:52;103236.69;;;5.01;77.27
8699;BME280;4386;51.236;6.742;2023-02-10T05:43:55;103235.84;;;5.00;77.24
8699;BME280;4386;51.236;6.742;2023-02-10T05:45:04;103235.84;;;5.00;77.25
8699;BME280;4386;51.236;6.742;2023-02-10T05:46:06;103236.69;;;5.01;77.33
8699;BME280;4386;51.236;6.742;2023-02-10T05:47:08;103237.59;;;5.00;77.34
8699;BME280;4386;51.236;6.742;2023-02-10T05:48:11;103236.69;;;5.01;77.49
8699;BME280;4386;51.236;6.742;2023-02-10T05:49:12;103235.84;;;5.00;77.31
8699;BME280;4386;51.236;6.742;2023-02-10T05:50:15;103230.59;;;5.00;77.59
8699;BME280;4386;51.236;6.742;2023-02-10T05:51:21;103240.25;;;5.00;77.37
8699;BME280;4386;51.236;6.742;2023-02-10T05:52:24;103238.50;;;4.99;77.45
8699;BME280;4386;51.236;6.742;2023-02-10T05:53:26;103236.72;;;4.99;77.39
8699;BME280;4386;51.236;6.742;2023-02-10T05:54:32;103237.59;;;5.00;77.33
8699;BME280;4386;51.236;6.742;2023-02-10T05:55:45;103241.94;;;5.01;77.36
8699;BME280;4386;51.236;6.742;2023-02-10T05:56:48;103243.75;;;4.99;77.60
8699;BME280;4386;51.236;6.742;2023-02-10T05:57:51;103246.38;;;4.99;77.32
8699;BME280;4386;51.236;6.742;2023-02-10T05:58:54;103243.75;;;4.99;77.63
8699;BME280;4386;51.236;6.742;2023-02-10T05:59:57;103242.00;;;4.98;77.54